Time;durP1;ratioP1;P1;durP2;ratioP2;P2;SDS_P1;SDS_P2;PMS_P1;PMS_P2;Temp;Humidity;BMP_temperature;BMP_pressure;BME280_temperature;BME280_humidity;BME280_pressure;Samples;Min_cycle;Max_cycle;Signal;HPM_P1;HPM_P2
2022/06/15 00:00:57;;;;;;;10.27;6.13;;;;;;;24.68;57.22;101380.22;5022960;28;20058;-79
2022/06/15 00:03:26;;;;;;;7.03;6.00;;;;;;;24.73;57.40;101388.56;5008826;28;20066;-79
2022/06/15 00:06:04;;;;;;;6.82;5.68;;;;;;;24.76;57.45;101385.47;5007612;28;20132;-79
2022/06/15 00:08:30;;;;;;;7.45;5.47;;;;;;;24.97;57.15;101397.94;5008498;28;20077;-79
2022/06/15 00:11:02;;;;;;;8.43;5.88;;;;;;;24.70;57.35;101367.28;5023325;28;20484;-78
2022/06/15 00:13:29;;;;;;;9.27;6.00;;;;;;;23.79;57.54;101238.56;5023478;28;20046;-79
2022/06/15 00:15:55;;;;;;;9.23;6.35;;;;;;;24.36;58.00;101350.16;5023125;28;20051;-80
2022/06/15 00:18:26;;;;;;;7.35;5.97;;;;;;;24.53;58.21;101378.56;5022861;28;20408;-79
2022/06/15 00:20:53;;;;;;;9.15;6.07;;;;;;;24.59;57.84;101381.50;5022886;28;20058;-79
2022/06/15 00:23:19;;;;;;;9.27;6.18;;;;;;;24.48;58.24;101381.09;5006784;28;20134;-80
2022/06/15 00:25:50;;;;;;;8.45;6.22;;;;;;;24.46;58.38;101383.16;5006412;28;20096;-79
2022/06/15 00:28:17;;;;;;;7.85;6.15;;;;;;;24.43;58.29;101386.28;5008284;28;20136;-78
2022/06/15 00:30:50;;;;;;;8.02;5.60;;;;;;;24.36;58.35;101387.31;5023480;28;20054;-79
2022/06/15 00:33:25;;;;;;;6.78;5.97;;;;;;;24.33;58.47;101375.03;5006958;28;20086;-79
2022/06/15 00:35:58;;;;;;;6.38;5.78;;;;;;;24.36;58.35;101374.59;5022784;28;20712;-78
2022/06/15 00:38:32;;;;;;;9.45;6.18;;;;;;;23.84;59.07;101308.44;5022327;28;20416;-79
2022/06/15 00:40:59;;;;;;;8.13;6.15;;;;;;;24.35;58.63;101375.66;5007881;28;20507;-79
2022/06/15 00:43:39;;;;;;;6.80;5.72;;;;;;;24.38;58.93;101368.97;5023003;28;20083;-79
2022/06/15 00:46:28;;;;;;;10.07;5.50;;;;;;;24.50;58.60;101375.47;5007713;28;20128;-79
2022/06/15 00:48:58;;;;;;;6.32;5.70;;;;;;;24.45;58.78;101369.81;5022436;28;20054;-79
2022/06/15 00:51:25;;;;;;;8.88;5.72;;;;;;;24.25;58.76;101356.25;5022716;28;20089;-79
2022/06/15 00:53:54;;;;;;;6.40;5.53;;;;;;;24.06;58.85;101318.03;5010050;28;20049;-80
2022/06/15 00:56:21;;;;;;;7.95;5.85;;;;;;;24.28;59.10;101370.22;5006156;28;20581;-79
2022/06/15 00:58:53;;;;;;;8.65;6.13;;;;;;;24.18;59.29;101358.13;5007090;28;20069;-79
2022/06/15 01:01:20;;;;;;;10.10;5.70;;;;;;;24.20;59.78;101366.84;5007240;28;20585;-79
2022/06/15 01:03:49;;;;;;;11.02;6.20;;;;;;;24.33;59.58;101376.91;5007009;28;20046;-79
2022/06/15 01:06:34;;;;;;;9.50;6.03;;;;;;;24.30;59.68;101373.56;5006053;28;20404;-79
2022/06/15 01:09:16;;;;;;;5.53;4.75;;;;;;;24.21;59.76;101368.53;5006127;28;20046;-79
2022/06/15 01:12:02;;;;;;;11.13;5.50;;;;;;;24.56;59.67;101387.34;5005112;28;20152;-78
2022/06/15 01:14:34;;;;;;;6.45;5.85;;;;;;;24.46;59.34;101380.47;5006614;28;20061;-79
2022/06/15 01:17:19;;;;;;;7.97;5.75;;;;;;;24.50;59.42;101376.28;5005907;28;20061;-80
2022/06/15 01:19:52;;;;;;;8.63;5.78;;;;;;;24.56;59.21;101368.34;5005641;28;20056;-78
2022/06/15 01:22:27;;;;;;;8.80;6.13;;;;;;;24.55;59.30;101366.69;5005698;28;20057;-79
2022/06/15 01:25:16;;;;;;;5.68;5.18;;;;;;;24.45;59.48;101370.63;5005579;28;20450;-78
2022/06/15 01:28:01;;;;;;;8.40;6.97;;;;;;;24.48;59.35;101377.53;5005828;28;20042;-79
2022/06/15 01:30:53;;;;;;;10.38;6.53;;;;;;;24.36;59.62;101366.44;5006075;28;20046;-79
2022/06/15 01:33:53;;;;;;;9.55;5.55;;;;;;;24.37;59.80;101372.72;5006162;28;20059;-79
2022/06/15 01:36:37;;;;;;;10.43;6.22;;;;;;;24.39;59.74;101376.88;5006363;28;20133;-78
2022/06/15 01:39:07;;;;;;;10.05;5.90;;;;;;;24.40;59.58;101384.00;5011535;28;20097;-80
2022/06/15 01:42:20;;;;;;;9.45;5.95;;;;;;;24.35;59.92;101378.38;5022934;28;20049;-79
2022/06/15 01:44:53;;;;;;;17.55;6.78;;;;;;;24.40;59.81;101381.28;4983975;28;20046;-79
2022/06/15 01:47:24;;;;;;;7.85;5.78;;;;;;;24.24;59.75;101362.69;4986161;28;20413;-77
2022/06/15 01:49:57;;;;;;;7.03;6.25;;;;;;;24.08;59.97;101337.66;4985848;28;20042;-77
2022/06/15 01:52:29;;;;;;;7.18;6.45;;;;;;;24.03;59.84;101326.59;4990183;28;20046;-78
2022/06/15 01:55:06;;;;;;;9.60;6.60;;;;;;;24.18;59.96;101363.53;5005042;28;20488;-78
2022/06/15 01:57:36;;;;;;;6.43;5.72;;;;;;;24.15;60.28;101364.75;5005237;28;20104;-78
2022/06/15 02:00:08;;;;;;;9.20;6.43;;;;;;;24.17;60.58;101364.56;5004814;28;20246;-78
2022/06/15 02:03:02;;;;;;;7.47;6.00;;;;;;;24.25;60.46;101384.19;5005016;28;20080;-78
2022/06/15 02:05:38;;;;;;;8.23;6.22;;;;;;;24.24;60.36;101387.94;5006554;28;20108;-79
2022/06/15 02:08:23;;;;;;;8.35;6.63;;;;;;;24.17;60.74;101388.97;5005339;28;20503;-79
2022/06/15 02:11:15;;;;;;;7.10;6.28;;;;;;;24.09;61.01;101385.44;5004830;28;20042;-78
2022/06/15 02:14:15;;;;;;;7.43;6.50;;;;;;;24.01;61.38;101395.66;5005114;28;20045;-78
2022/06/15 02:16:50;;;;;;;8.93;6.65;;;;;;;23.87;61.28;101376.63;5008012;28;20229;-78
2022/06/15 02:19:32;;;;;;;6.90;6.30;;;;;;;23.65;61.38;101343.41;5005649;28;20054;-79
2022/06/15 02:22:08;;;;;;;7.30;6.43;;;;;;;23.82;61.07;101365.56;5005458;28;20355;-79
2022/06/15 02:24:37;;;;;;;7.45;6.32;;;;;;;23.90;61.45;101386.22;5009032;28;20082;-80
2022/06/15 02:27:06;;;;;;;6.85;5.70;;;;;;;23.34;61.67;101302.47;5009713;28;20476;-79
2022/06/15 02:29:38;;;;;;;8.65;6.20;;;;;;;23.82;61.56;101381.00;5008784;28;20053;-79
2022/06/15 02:32:10;;;;;;;10.15;6.13;;;;;;;23.46;61.69;101322.50;5008714;28;20057;-79
2022/06/15 02:34:38;;;;;;;6.95;6.05;;;;;;;23.89;61.13;101382.69;5009966;28;20350;-78
2022/06/15 02:37:05;;;;;;;9.93;6.22;;;;;;;23.90;61.25;101394.38;5008883;28;20080;-78
2022/06/15 02:39:33;;;;;;;9.18;6.90;;;;;;;23.62;61.19;101359.25;5005150;28;20078;-80
2022/06/15 02:42:20;;;;;;;10.65;6.35;;;;;;;23.85;61.60;101408.53;4989399;28;20421;-79
2022/06/15 02:44:49;;;;;;;8.77;6.18;;;;;;;23.21;61.79;101314.09;4989728;28;20547;-80
2022/06/15 02:47:19;;;;;;;7.82;6.57;;;;;;;23.21;61.82;101323.06;4989337;28;20236;-78
2022/06/15 02:49:51;;;;;;;10.60;6.25;;;;;;;23.74;61.89;101411.00;4988760;28;20085;-78
2022/06/15 02:52:25;;;;;;;9.32;5.65;;;;;;;23.62;61.32;101379.06;4991473;28;20456;-77
2022/06/15 02:54:54;;;;;;;8.38;6.40;;;;;;;23.63;61.55;101378.00;5008353;28;20049;-79
2022/06/15 02:57:22;;;;;;;8.93;7.53;;;;;;;22.83;60.87;101230.59;5008549;28;20054;-79
2022/06/15 02:59:50;;;;;;;10.13;6.78;;;;;;;23.61;60.74;101360.28;5008334;28;20139;-78
2022/06/15 03:02:17;;;;;;;10.30;7.38;;;;;;;23.77;60.78;101399.78;5008315;28;20094;-79
2022/06/15 03:04:45;;;;;;;10.75;7.93;;;;;;;23.57;60.50;101378.84;5008727;28;20124;-80
2022/06/15 03:07:13;;;;;;;10.85;9.07;;;;;;;23.50;61.21;101393.38;5008518;28;20136;-79
2022/06/15 03:09:40;;;;;;;9.70;8.70;;;;;;;23.27;61.31;101369.31;5009375;28;20554;-79
2022/06/15 03:12:10;;;;;;;12.15;9.65;;;;;;;23.45;60.79;101391.28;5024907;28;20349;-79
2022/06/15 03:14:37;;;;;;;15.10;9.35;;;;;;;23.33;60.96;101388.31;5009348;28;20097;-78
2022/06/15 03:17:03;;;;;;;17.90;9.43;;;;;;;23.18;61.38;101384.91;5007435;28;20042;-78
2022/06/15 03:19:31;;;;;;;14.88;10.65;;;;;;;23.17;61.45;101403.03;5007850;28;20144;-78
2022/06/15 03:21:58;;;;;;;16.63;9.77;;;;;;;22.95;61.93;101393.28;5007999;28;20050;-79
2022/06/15 03:24:25;;;;;;;14.63;10.52;;;;;;;22.78;62.43;101388.19;5024575;28;20053;-79
2022/06/15 03:26:52;;;;;;;18.95;10.63;;;;;;;22.45;62.83;101358.16;5007640;28;20273;-78
2022/06/15 03:29:19;;;;;;;14.52;10.38;;;;;;;22.49;62.92;101369.44;5007796;28;20343;-78
2022/06/15 03:31:46;;;;;;;19.05;10.52;;;;;;;22.55;62.91;101385.75;5007752;28;20046;-79
2022/06/15 03:34:12;;;;;;;12.48;10.93;;;;;;;22.63;62.75;101395.56;5007102;28;20496;-78
2022/06/15 03:36:39;;;;;;;11.52;10.27;;;;;;;22.79;63.22;101422.34;5009771;28;20042;-78
2022/06/15 03:39:06;;;;;;;14.57;10.77;;;;;;;22.89;63.00;101418.44;5016660;28;20047;-79
2022/06/15 03:41:33;;;;;;;15.35;10.50;;;;;;;22.86;62.99;101419.66;5008599;28;20090;-81
2022/06/15 03:43:59;;;;;;;16.23;11.15;;;;;;;22.77;63.21;101412.75;5024746;28;20042;-79
2022/06/15 03:46:26;;;;;;;14.00;10.05;;;;;;;22.75;63.15;101429.19;5006000;28;20051;-79
2022/06/15 03:48:53;;;;;;;12.90;10.57;;;;;;;22.70;63.57;101426.25;5004022;28;20555;-80
2022/06/15 03:51:21;;;;;;;15.82;11.00;;;;;;;22.45;64.34;101406.88;4987977;28;20058;-81
2022/06/15 03:53:48;;;;;;;8.43;7.35;;;;;;;22.56;64.40;101413.63;5007106;28;20057;-80
2022/06/15 03:56:14;;;;;;;12.75;10.27;;;;;;;22.05;63.70;101311.03;5007368;28;20082;-79
2022/06/15 03:58:41;;;;;;;17.45;11.40;;;;;;;22.46;64.03;101381.50;5007141;28;20099;-80
2022/06/15 04:01:07;;;;;;;15.20;11.40;;;;;;;22.49;64.06;101381.09;5007229;28;20072;-79
2022/06/15 04:03:34;;;;;;;14.88;11.38;;;;;;;22.78;63.95;101414.41;5006953;28;20558;-78
2022/06/15 04:06:02;;;;;;;14.82;10.10;;;;;;;22.90;63.80;101441.78;5006940;28;20101;-79
2022/06/15 04:08:39;;;;;;;17.27;11.70;;;;;;;22.65;63.72;101377.28;5008589;28;20268;-80
2022/06/15 04:14:00;;;;;;;13.65;12.30;;;;;;;23.24;62.94;101441.00;5008278;28;20065;-78
2022/06/15 04:16:28;;;;;;;14.73;12.02;;;;;;;23.14;62.75;101419.69;5006704;28;20688;-78
2022/06/15 04:18:55;;;;;;;12.38;10.55;;;;;;;23.27;63.08;101447.88;5007727;28;20053;-78
2022/06/15 04:21:21;;;;;;;17.08;11.85;;;;;;;22.96;63.23;101403.94;5006516;28;20092;-79
2022/06/15 04:23:48;;;;;;;14.35;12.82;;;;;;;23.19;63.16;101449.72;5006419;28;20082;-79
2022/06/15 04:26:15;;;;;;;15.10;11.23;;;;;;;23.18;63.14;101422.81;5006549;28;20061;-78
2022/06/15 04:28:43;;;;;;;14.15;12.35;;;;;;;23.27;62.74;101434.34;5006595;28;20057;-79
2022/06/15 04:31:10;;;;;;;18.13;12.18;;;;;;;23.32;62.27;101442.69;5006690;28;20050;-79
2022/06/15 04:33:38;;;;;;;16.48;12.50;;;;;;;23.29;62.75;101443.94;5006540;28;20149;-79
2022/06/15 04:36:05;;;;;;;15.18;11.85;;;;;;;23.03;62.50;101393.16;5006882;28;20052;-79
2022/06/15 04:38:32;;;;;;;15.70;11.27;;;;;;;23.23;62.84;101418.50;5007712;28;20081;-78
2022/06/15 04:40:59;;;;;;;17.13;12.18;;;;;;;22.82;62.48;101354.28;5023287;28;20054;-78
2022/06/15 04:43:25;;;;;;;16.83;11.90;;;;;;;23.20;62.36;101393.66;5006852;28;20085;-78
2022/06/15 04:45:52;;;;;;;15.80;10.35;;;;;;;23.52;62.60;101435.53;5006319;28;20127;-79
2022/06/15 04:48:19;;;;;;;15.15;11.77;;;;;;;23.33;62.25;101401.88;5023133;28;20050;-79
2022/06/15 04:50:45;;;;;;;17.58;12.73;;;;;;;23.41;62.60;101417.13;5006273;28;20046;-78
2022/06/15 04:53:12;;;;;;;20.95;13.43;;;;;;;23.43;62.05;101417.75;5022200;28;20052;-78
2022/06/15 04:55:39;;;;;;;16.52;12.73;;;;;;;23.37;62.37;101429.38;5006044;28;20562;-78
2022/06/15 04:58:06;;;;;;;13.98;12.10;;;;;;;23.29;63.29;101434.97;5006069;28;20052;-79
2022/06/15 05:00:37;;;;;;;20.55;11.77;;;;;;;23.28;63.28;101433.28;5024135;28;20100;-78
2022/06/15 05:03:04;;;;;;;12.90;11.27;;;;;;;23.16;63.48;101409.50;5011297;28;20050;-78
2022/06/15 05:05:31;;;;;;;16.23;12.75;;;;;;;23.37;63.66;101434.78;5030904;28;20053;-80
2022/06/15 05:07:58;;;;;;;13.43;12.10;;;;;;;23.18;63.62;101409.28;5027435;28;20057;-79
2022/06/15 05:10:25;;;;;;;15.43;11.15;;;;;;;23.39;63.36;101451.69;5020533;28;20046;-79
2022/06/15 05:12:53;;;;;;;18.63;11.20;;;;;;;23.06;63.58;101392.78;5014635;28;20050;-77
2022/06/15 05:15:20;;;;;;;12.90;11.35;;;;;;;23.26;63.16;101398.28;5008165;28;20049;-78
2022/06/15 05:17:47;;;;;;;12.70;11.00;;;;;;;23.41;62.69;101396.28;5022824;28;20061;-78
2022/06/15 05:20:16;;;;;;;12.88;10.63;;;;;;;23.66;62.34;101420.13;5005737;28;20476;-78
2022/06/15 05:22:49;;;;;;;16.13;10.93;;;;;;;23.93;62.04;101450.06;5021119;28;20061;-77
2022/06/15 05:25:16;;;;;;;13.32;10.65;;;;;;;23.96;62.15;101441.50;5004647;28;20054;-78
2022/06/15 05:27:44;;;;;;;12.57;11.27;;;;;;;23.61;61.90;101382.78;5021400;28;20121;-78
2022/06/15 05:30:11;;;;;;;11.95;10.70;;;;;;;24.02;61.88;101446.13;5021370;28;20476;-78
2022/06/15 05:32:38;;;;;;;16.80;10.98;;;;;;;24.04;61.67;101446.75;5005483;28;20586;-79
2022/06/15 05:35:05;;;;;;;12.73;10.85;;;;;;;24.02;61.65;101436.09;5003933;28;20060;-81
2022/06/15 05:37:32;;;;;;;16.10;11.57;;;;;;;24.21;61.52;101452.66;5004304;28;20050;-79
2022/06/15 05:39:59;;;;;;;16.90;11.88;;;;;;;24.30;61.08;101464.97;4990494;28;20074;-78
2022/06/15 05:42:28;;;;;;;15.05;11.70;;;;;;;24.33;60.77;101453.69;4986146;28;20108;-79
2022/06/15 05:44:56;;;;;;;16.27;12.10;;;;;;;24.42;60.76;101463.31;4997668;28;20050;-78
2022/06/15 05:47:23;;;;;;;15.52;11.85;;;;;;;24.43;60.87;101448.69;5023654;28;20054;-79
2022/06/15 05:49:50;;;;;;;17.88;11.75;;;;;;;24.56;60.91;101458.75;5004147;28;20053;-80
2022/06/15 05:52:17;;;;;;;17.42;13.02;;;;;;;24.22;60.60;101386.47;5003169;28;20042;-79
2022/06/15 05:54:44;;;;;;;19.67;13.15;;;;;;;24.59;60.25;101430.34;4987610;28;20478;-78
2022/06/15 05:57:18;;;;;;;11.75;10.48;;;;;;;24.87;60.36;101465.44;5005506;28;20053;-79
2022/06/15 05:59:48;;;;;;;14.30;12.75;;;;;;;24.65;59.95;101432.25;5007386;28;20120;-77
2022/06/15 06:02:18;;;;;;;14.55;11.20;;;;;;;24.95;60.13;101478.78;5007559;28;20530;-78
2022/06/15 06:04:45;;;;;;;12.45;11.20;;;;;;;24.91;59.97;101450.41;5008828;28;20050;-78
2022/06/15 06:07:17;;;;;;;15.20;11.20;;;;;;;25.06;59.96;101474.63;5023107;28;20064;-78
2022/06/15 06:09:44;;;;;;;16.55;11.38;;;;;;;25.06;59.48;101469.19;5024440;28;20066;-80
2022/06/15 06:12:10;;;;;;;16.85;11.63;;;;;;;25.11;59.45;101474.81;5023820;28;20116;-79
2022/06/15 06:14:40;;;;;;;14.35;9.32;;;;;;;25.19;59.39;101471.88;5024290;28;20054;-78
2022/06/15 06:17:07;;;;;;;13.65;9.30;;;;;;;25.22;58.75;101460.63;5007525;28;20058;-78
2022/06/15 06:19:35;;;;;;;14.68;8.98;;;;;;;25.23;58.90;101465.00;5007368;28;20057;-77
2022/06/15 06:22:02;;;;;;;10.77;8.32;;;;;;;25.28;58.84;101459.75;5008759;28;20129;-79
2022/06/15 06:24:28;;;;;;;14.45;8.82;;;;;;;25.40;58.31;101473.53;5009112;28;20062;-81
2022/06/15 06:27:05;;;;;;;10.48;9.43;;;;;;;25.35;57.92;101471.44;5025344;28;20456;-78
2022/06/15 06:29:35;;;;;;;13.10;8.38;;;;;;;25.01;58.44;101420.09;5008958;28;20061;-79
2022/06/15 06:32:05;;;;;;;12.13;9.73;;;;;;;25.49;58.78;101480.41;5008624;28;20506;-79
2022/06/15 06:34:32;;;;;;;12.65;11.02;;;;;;;25.32;58.78;101455.56;5008827;28;20054;-78
2022/06/15 06:37:02;;;;;;;17.00;11.15;;;;;;;25.50;58.57;101481.22;5008833;28;20141;-78
2022/06/15 06:39:31;;;;;;;13.85;9.73;;;;;;;25.28;58.48;101421.72;5023830;28;20045;-76
2022/06/15 06:41:59;;;;;;;14.15;9.82;;;;;;;25.58;57.92;101429.31;5006783;28;20084;-78
2022/06/15 06:44:26;;;;;;;18.10;11.45;;;;;;;25.80;58.09;101476.06;5007822;28;20535;-79
2022/06/15 06:46:54;;;;;;;14.55;10.98;;;;;;;25.05;57.56;101326.25;5022890;28;20057;-79
2022/06/15 06:49:23;;;;;;;11.25;8.82;;;;;;;26.13;57.17;101481.38;4990493;28;20560;-78
2022/06/15 06:51:52;;;;;;;15.10;11.93;;;;;;;25.57;57.60;101412.19;5007003;28;20045;-77
2022/06/15 06:54:21;;;;;;;13.48;10.38;;;;;;;24.98;57.01;101317.28;5007110;28;20046;-77
2022/06/15 06:56:48;;;;;;;9.88;8.98;;;;;;;25.97;57.38;101481.88;5007021;28;20127;-77
2022/06/15 06:59:17;;;;;;;15.75;10.55;;;;;;;26.00;57.13;101497.78;5008750;28;20511;-77
2022/06/15 07:01:45;;;;;;;15.02;11.15;;;;;;;25.90;57.50;101464.75;5009139;28;20128;-77
2022/06/15 07:04:14;;;;;;;14.88;11.82;;;;;;;25.86;57.48;101463.56;5008255;28;20058;-77
2022/06/15 07:06:41;;;;;;;17.17;10.85;;;;;;;25.61;57.87;101430.78;5009009;28;20042;-78
2022/06/15 07:09:08;;;;;;;16.35;9.85;;;;;;;25.97;58.24;101482.75;5008913;28;20081;-78
2022/06/15 07:11:37;;;;;;;11.05;9.55;;;;;;;26.10;58.24;101486.44;5008563;28;20081;-78
2022/06/15 07:14:05;;;;;;;10.43;9.40;;;;;;;26.19;57.88;101490.53;5008644;28;20081;-78
2022/06/15 07:16:38;;;;;;;14.93;9.68;;;;;;;26.26;58.23;101490.50;5009231;28;20074;-79
2022/06/15 07:19:05;;;;;;;10.98;9.68;;;;;;;26.15;57.64;101465.69;5008685;28;20050;-78
2022/06/15 07:21:32;;;;;;;13.38;10.15;;;;;;;26.28;57.49;101482.97;5009587;28;20059;-79
2022/06/15 07:23:59;;;;;;;11.55;7.97;;;;;;;26.13;57.79;101481.38;5008962;28;20246;-79
2022/06/15 07:26:32;;;;;;;11.93;8.75;;;;;;;26.18;57.92;101472.56;5009612;28;20053;-77
2022/06/15 07:29:00;;;;;;;9.60;8.65;;;;;;;26.08;57.66;101447.72;5009023;28;20049;-78
2022/06/15 07:31:35;;;;;;;10.73;9.38;;;;;;;26.25;57.77;101480.69;5009349;28;20046;-78
2022/06/15 07:34:03;;;;;;;9.07;8.20;;;;;;;26.10;57.27;101421.97;5009372;28;20597;-79
2022/06/15 07:36:36;;;;;;;8.93;8.02;;;;;;;26.53;57.06;101481.16;5008924;28;20050;-78
2022/06/15 07:39:04;;;;;;;13.02;8.82;;;;;;;26.57;56.79;101476.91;5009140;28;20217;-78
2022/06/15 07:41:32;;;;;;;9.52;8.52;;;;;;;26.51;56.05;101456.00;5024363;28;20145;-80
2022/06/15 07:43:59;;;;;;;10.40;8.60;;;;;;;26.77;56.35;101462.31;5010806;28;20388;-78
2022/06/15 07:46:27;;;;;;;14.65;9.38;;;;;;;26.96;55.21;101463.19;5018584;28;20136;-77
2022/06/15 07:51:52;;;;;;;13.38;7.95;;;;;;;26.80;56.42;101459.16;5012341;28;20045;-77
2022/06/15 07:54:20;;;;;;;11.40;7.82;;;;;;;26.64;56.30;101423.25;5009521;28;20120;-77
2022/06/15 07:56:48;;;;;;;10.50;9.25;;;;;;;26.58;56.60;101413.25;5007563;28;20514;-76
2022/06/15 07:59:15;;;;;;;11.77;7.60;;;;;;;27.00;55.91;101453.50;5007503;28;20236;-76
2022/06/15 08:01:43;;;;;;;11.25;7.38;;;;;;;27.10;55.29;101444.81;5007521;28;20546;-78
2022/06/15 08:04:11;;;;;;;8.63;7.68;;;;;;;27.35;54.78;101453.78;5009299;28;20054;-78
2022/06/15 08:06:41;;;;;;;10.45;8.50;;;;;;;26.90;54.51;101369.56;5007747;28;20049;-78
2022/06/15 08:09:09;;;;;;;8.50;7.65;;;;;;;27.42;54.67;101456.44;5007845;28;20562;-77
2022/06/15 08:12:11;;;;;;;8.93;7.65;;;;;;;27.31;55.02;101460.75;5008125;28;20053;-79
2022/06/15 08:14:30;;;;;;;8.55;6.72;;;;;;;27.19;55.02;101425.25;5008659;28;20050;-77
2022/06/15 08:16:59;;;;;;;14.00;9.77;;;;;;;27.51;54.83;101457.78;5007436;28;20201;-77
2022/06/15 08:19:27;;;;;;;8.88;7.13;;;;;;;27.39;54.05;101430.44;5007296;28;20068;-78
2022/06/15 08:21:54;;;;;;;7.85;7.05;;;;;;;27.47;54.85;101459.31;5007172;28;20042;-78
2022/06/15 08:24:24;;;;;;;9.18;8.05;;;;;;;27.38;55.46;101450.63;5007834;28;20100;-79
2022/06/15 08:26:51;;;;;;;7.50;6.47;;;;;;;27.69;53.67;101440.56;5007781;28;20060;-77
2022/06/15 08:29:19;;;;;;;11.00;7.53;;;;;;;27.91;53.25;101474.53;5008892;28;20049;-77
2022/06/15 08:31:47;;;;;;;7.38;6.22;;;;;;;27.47;53.42;101416.50;5008698;28;20151;-76
2022/06/15 08:34:14;;;;;;;9.38;7.28;;;;;;;27.42;54.25;101435.44;5007506;28;20066;-78
2022/06/15 08:36:42;;;;;;;9.20;6.85;;;;;;;27.59;54.16;101464.81;5008484;28;20057;-78
2022/06/15 08:39:09;;;;;;;6.90;6.15;;;;;;;27.57;52.97;101399.59;5007194;28;20052;-79
2022/06/15 08:41:52;;;;;;;8.40;7.32;;;;;;;27.55;54.53;101456.28;5008970;28;20088;-80
2022/06/15 08:44:34;;;;;;;7.35;6.55;;;;;;;27.87;52.95;101454.22;5024013;28;20046;-80
2022/06/15 08:47:04;;;;;;;9.93;8.48;;;;;;;27.59;54.51;101452.00;5023518;28;20100;-79
2022/06/15 08:50:00;;;;;;;7.00;6.30;;;;;;;27.71;53.64;101461.09;5022789;28;20056;-78
2022/06/15 08:52:37;;;;;;;10.40;7.97;;;;;;;27.34;54.40;101400.31;5006709;28;20060;-79
2022/06/15 08:55:07;;;;;;;9.93;8.50;;;;;;;27.29;55.13;101394.72;5006949;28;20416;-79
2022/06/15 08:57:38;;;;;;;7.90;7.25;;;;;;;27.56;54.98;101443.47;5006738;28;20522;-78
2022/06/15 09:00:24;;;;;;;7.28;6.68;;;;;;;27.70;55.54;101455.88;5006654;28;20107;-80
2022/06/15 09:03:16;;;;;;;5.95;5.53;;;;;;;28.02;53.28;101452.97;5005998;28;20389;-79
2022/06/15 09:06:29;;;;;;;6.57;6.07;;;;;;;28.07;52.81;101434.00;5007974;28;20081;-80
2022/06/15 09:09:09;;;;;;;7.30;6.70;;;;;;;27.56;53.95;101405.28;5006729;28;20092;-79
2022/06/15 09:15:13;;;;;;;9.68;6.55;;;;;;;28.13;53.22;101454.88;5015815;28;20046;-78
2022/06/15 09:17:40;;;;;;;7.70;6.70;;;;;;;28.17;52.23;101426.06;5019761;28;20137;-77
2022/06/15 09:20:23;;;;;;;9.88;6.65;;;;;;;28.05;52.63;101438.84;5017725;28;20100;-77
2022/06/15 09:22:57;;;;;;;9.52;8.18;;;;;;;27.81;53.93;101427.81;5021221;28;20050;-78
2022/06/15 09:25:34;;;;;;;9.35;8.32;;;;;;;27.61;54.00;101403.53;5018120;28;20506;-78
2022/06/15 09:28:25;;;;;;;7.72;6.80;;;;;;;28.17;53.10;101453.34;5011414;28;20060;-77
2022/06/15 09:30:58;;;;;;;6.78;6.18;;;;;;;28.19;52.78;101440.31;5038623;28;20038;-78
2022/06/15 09:33:32;;;;;;;10.30;8.00;;;;;;;28.19;53.43;101423.09;5007890;28;20054;-78
2022/06/15 09:36:13;;;;;;;9.57;7.30;;;;;;;28.60;52.32;101449.56;5006957;28;20045;-79
2022/06/15 09:38:41;;;;;;;9.63;6.93;;;;;;;28.33;52.35;101424.56;5006284;28;20049;-80
2022/06/15 09:41:55;;;;;;;7.82;7.03;;;;;;;28.47;51.48;101433.38;5006942;28;20050;-79
2022/06/15 09:44:52;;;;;;;13.07;8.48;;;;;;;28.16;53.99;101424.41;5008830;28;20340;-78
2022/06/15 09:48:04;;;;;;;8.82;7.50;;;;;;;28.11;53.71;101429.75;5028461;28;20085;-77
2022/06/15 09:51:03;;;;;;;8.95;7.25;;;;;;;28.41;52.41;101437.03;5003758;28;20073;-78
2022/06/15 09:54:09;;;;;;;9.65;8.35;;;;;;;28.55;52.41;101444.81;5010624;28;20046;-78
2022/06/15 09:56:37;;;;;;;7.63;7.03;;;;;;;28.34;52.66;101437.97;5007585;28;20084;-79
2022/06/15 09:59:09;;;;;;;10.27;7.38;;;;;;;28.58;50.75;101418.91;5007842;28;20070;-79
2022/06/15 10:01:42;;;;;;;10.88;6.60;;;;;;;28.07;50.40;101317.47;5004579;28;20054;-80
2022/06/15 10:04:27;;;;;;;8.35;7.65;;;;;;;28.20;53.15;101406.47;5003253;28;20058;-80
2022/06/15 10:07:16;;;;;;;19.33;9.02;;;;;;;28.02;53.27;101407.41;5005589;28;20053;-80
2022/06/15 10:09:51;;;;;;;9.30;8.18;;;;;;;28.40;52.67;101428.03;5006254;28;20045;-80
2022/06/15 10:13:06;;;;;;;10.88;7.72;;;;;;;28.35;51.79;101400.56;5009929;28;20485;-78
2022/06/15 10:15:28;;;;;;;10.35;7.60;;;;;;;28.53;51.96;101413.34;5005519;28;20385;-79
2022/06/15 10:17:59;;;;;;;7.47;6.70;;;;;;;28.33;51.69;101378.97;5005856;28;20050;-79
2022/06/15 10:20:36;;;;;;;7.82;7.22;;;;;;;28.70;50.63;101392.44;5005362;28;20560;-80
2022/06/15 10:23:15;;;;;;;6.97;6.38;;;;;;;28.65;51.63;101414.16;5005977;28;20042;-79
2022/06/15 10:25:53;;;;;;;6.65;6.10;;;;;;;28.90;50.32;101391.22;5005791;28;20419;-80
2022/06/15 10:28:31;;;;;;;8.00;7.20;;;;;;;27.99;50.29;101271.44;5007408;28;20080;-80
2022/06/15 10:31:04;;;;;;;8.90;7.70;;;;;;;28.88;50.16;101415.22;5005777;28;20563;-78
2022/06/15 10:33:44;;;;;;;12.00;8.63;;;;;;;28.88;50.47;101410.59;5007183;28;20126;-80
2022/06/15 10:36:21;;;;;;;8.20;7.53;;;;;;;27.86;50.43;101258.00;5007291;28;20455;-79
2022/06/15 10:38:53;;;;;;;9.35;8.52;;;;;;;28.71;51.36;101399.53;5005713;28;20046;-80
2022/06/15 10:41:45;;;;;;;10.20;8.88;;;;;;;28.86;51.65;101400.97;5005524;28;20466;-80
2022/06/15 10:44:23;;;;;;;8.75;7.95;;;;;;;29.05;51.27;101404.41;5007473;28;20096;-80
2022/06/15 10:46:59;;;;;;;10.00;9.00;;;;;;;29.05;50.82;101369.69;5008736;28;20057;-79
2022/06/15 10:49:30;;;;;;;9.63;7.88;;;;;;;29.29;50.24;101365.03;5008925;28;20050;-80
2022/06/15 10:51:57;;;;;;;8.95;8.25;;;;;;;29.54;49.92;101383.84;5009487;28;20140;-79
2022/06/15 11:02:06;;;;;;;8.73;7.82;;;;;;;29.72;48.69;101366.44;5008903;28;20093;-80
2022/06/15 11:03:23;;;;;;;8.77;7.90;;;;;;;29.54;48.78;101385.72;5009438;28;20236;-80
2022/06/15 11:05:53;;;;;;;8.48;7.78;;;;;;;29.11;49.33;101343.34;5008798;28;20423;-81
2022/06/15 11:08:23;;;;;;;8.15;7.40;;;;;;;28.96;50.67;101369.25;5008615;28;20060;-80
2022/06/15 11:11:07;;;;;;;8.83;7.93;;;;;;;29.01;50.36;101343.94;5008670;28;20061;-79
2022/06/15 11:13:39;;;;;;;8.70;7.93;;;;;;;29.36;49.33;101348.47;5008853;28;20305;-79
2022/06/15 11:19:23;;;;;;;8.82;8.02;;;;;;;28.65;49.71;101269.38;5009064;28;20127;-77
2022/06/15 11:22:02;;;;;;;10.43;9.27;;;;;;;29.17;50.92;101347.81;5008967;28;20057;-78
2022/06/15 11:24:54;;;;;;;8.68;7.78;;;;;;;29.57;48.98;101353.28;5008886;28;20397;-79
2022/06/15 11:27:37;;;;;;;8.93;8.13;;;;;;;29.32;49.46;101360.97;5009025;28;20053;-78
2022/06/15 11:30:17;;;;;;;10.65;8.50;;;;;;;29.08;50.30;101369.25;5008035;28;20332;-79
2022/06/15 11:32:45;;;;;;;8.60;7.72;;;;;;;29.22;50.42;101360.75;5007622;28;20053;-80
2022/06/15 11:35:12;;;;;;;9.27;8.48;;;;;;;29.48;49.70;101365.66;5007844;28;20562;-79
2022/06/15 11:38:16;;;;;;;9.23;8.40;;;;;;;29.21;50.33;101321.66;5008758;28;20053;-78
2022/06/15 11:40:46;;;;;;;9.27;8.38;;;;;;;29.69;49.21;101366.09;5007579;28;20100;-79
2022/06/15 11:43:30;;;;;;;10.27;9.43;;;;;;;29.09;49.35;101291.63;5008376;28;20503;-79
2022/06/15 11:46:18;;;;;;;9.68;8.88;;;;;;;29.51;49.58;101365.16;5009153;28;20046;-79
2022/06/15 11:49:06;;;;;;;9.82;8.93;;;;;;;29.53;49.85;101360.28;5008768;28;20100;-79
2022/06/15 11:51:42;;;;;;;9.40;8.57;;;;;;;28.60;49.89;101222.84;5012215;28;20546;-79
2022/06/15 11:54:15;;;;;;;9.75;8.75;;;;;;;29.73;49.04;101361.78;5010931;28;20058;-78
2022/06/15 11:57:12;;;;;;;10.27;9.18;;;;;;;29.47;48.28;101287.44;5023881;28;20108;-80
2022/06/15 11:59:49;;;;;;;9.57;8.77;;;;;;;29.53;49.29;101330.19;5003674;28;20065;-79
2022/06/15 12:02:34;;;;;;;9.63;8.90;;;;;;;29.77;48.88;101357.47;5007577;28;20062;-78
2022/06/15 12:05:24;;;;;;;9.90;9.00;;;;;;;29.77;48.78;101346.53;5009328;28;20500;-80